Time;durP1;ratioP1;P1;durP2;ratioP2;P2;SDS_P1;SDS_P2;PMS_P1;PMS_P2;Temp;Humidity;BMP_temperature;BMP_pressure;BME280_temperature;BME280_humidity;BME280_pressure;Samples;Min_cycle;Max_cycle;Signal;HPM_P1;HPM_P2
2023/07/20 00:01:15;;;;;;;7.35;3.13;;;18.20;88.30;;;;;;5054732;28;20440;-83
2023/07/20 00:03:41;;;;;;;7.45;3.90;;;18.20;88.20;;;;;;5054354;28;20116;-83
2023/07/20 00:06:07;;;;;;;6.85;3.47;;;18.10;88.20;;;;;;5054453;28;20109;-84
2023/07/20 00:08:33;;;;;;;8.38;3.15;;;18.00;88.10;;;;;;5055313;28;20029;-83
2023/07/20 00:10:58;;;;;;;6.43;3.33;;;18.00;88.10;;;;;;5054390;28;20070;-83
2023/07/20 00:13:24;;;;;;;10.05;4.18;;;17.90;88.20;;;;;;5054193;28;20045;-83
2023/07/20 00:15:51;;;;;;;6.93;3.40;;;17.90;88.20;;;;;;5055189;28;20045;-82
2023/07/20 00:18:17;;;;;;;6.60;3.60;;;17.80;88.30;;;;;;5054025;28;20560;-85
2023/07/20 00:20:43;;;;;;;6.03;3.17;;;17.80;88.40;;;;;;5054059;28;20119;-83
2023/07/20 00:23:08;;;;;;;5.13;3.47;;;17.80;88.50;;;;;;5054659;28;20109;-83
2023/07/20 00:25:35;;;;;;;7.20;3.63;;;17.80;88.60;;;;;;5054409;28;20466;-83
2023/07/20 00:28:01;;;;;;;5.47;3.33;;;17.70;88.80;;;;;;5053897;28;20112;-83
2023/07/20 00:30:27;;;;;;;5.38;3.67;;;17.70;88.90;;;;;;5055041;28;20477;-82
2023/07/20 00:32:52;;;;;;;7.28;3.38;;;17.70;89.00;;;;;;5053307;28;20029;-82
2023/07/20 00:35:18;;;;;;;5.85;3.65;;;17.60;89.10;;;;;;5037291;28;20029;-83
2023/07/20 00:37:44;;;;;;;6.35;3.90;;;17.60;89.40;;;;;;5053865;28;20033;-84
2023/07/20 00:40:10;;;;;;;5.43;2.85;;;17.60;89.50;;;;;;5053730;28;20487;-84
2023/07/20 00:42:36;;;;;;;6.80;3.17;;;17.60;89.60;;;;;;5053574;28;20421;-83
2023/07/20 00:45:01;;;;;;;7.93;3.38;;;17.50;89.80;;;;;;5055060;28;20037;-83
2023/07/20 00:47:27;;;;;;;5.78;3.15;;;17.50;90.00;;;;;;5053756;28;20397;-83
2023/07/20 00:49:54;;;;;;;5.38;3.35;;;17.50;90.00;;;;;;5053498;28;20481;-83
2023/07/20 00:52:23;;;;;;;5.53;3.25;;;17.40;90.00;;;;;;5036854;28;20477;-83
2023/07/20 00:54:49;;;;;;;7.60;4.13;;;17.40;90.10;;;;;;5053337;28;20025;-83
2023/07/20 00:57:17;;;;;;;7.97;4.45;;;17.40;90.20;;;;;;5036747;28;20139;-84
2023/07/20 00:59:43;;;;;;;6.35;3.55;;;17.40;90.30;;;;;;5054808;28;20044;-84
2023/07/20 01:02:09;;;;;;;6.88;3.22;;;17.30;90.40;;;;;;5054605;28;20105;-84
2023/07/20 01:04:36;;;;;;;6.20;3.00;;;17.30;90.50;;;;;;5054410;28;20060;-83
2023/07/20 01:07:28;;;;;;;6.47;3.63;;;17.30;90.50;;;;;;5054324;28;20473;-77
2023/07/20 01:10:07;;;;;;;5.72;3.17;;;17.20;90.60;;;;;;5054531;28;20476;-77
2023/07/20 01:12:41;;;;;;;7.57;3.55;;;17.20;90.70;;;;;;5054324;28;20021;-77
2023/07/20 01:15:07;;;;;;;6.72;3.47;;;17.20;90.70;;;;;;5054149;28;20036;-77
2023/07/20 01:17:34;;;;;;;5.07;2.42;;;17.20;90.80;;;;;;5054313;28;20473;-77
2023/07/20 01:20:00;;;;;;;5.53;2.85;;;17.10;90.80;;;;;;5052898;28;20546;-77
2023/07/20 01:23:00;;;;;;;5.78;2.97;;;17.10;91.20;;;;;;5053081;28;20029;-77
2023/07/20 01:25:45;;;;;;;6.78;2.97;;;17.10;91.00;;;;;;5054168;28;20567;-77
2023/07/20 01:28:16;;;;;;;;;;;17.10;91.10;;;;;;5053180;28;20067;-77
2023/07/20 01:31:18;;;;;;;4.80;2.42;;;17.10;91.20;;;;;;5052652;28;19905;-77
2023/07/20 01:33:46;;;;;;;4.80;2.83;;;17.00;91.10;;;;;;5049605;28;20404;-77
2023/07/20 01:36:12;;;;;;;3.88;2.45;;;17.00;91.10;;;;;;5052466;28;20485;-77
2023/07/20 01:38:37;;;;;;;6.50;2.78;;;17.00;91.20;;;;;;5052613;28;20037;-77
2023/07/20 01:41:04;;;;;;;5.22;2.40;;;17.00;91.30;;;;;;5053785;28;20078;-77
2023/07/20 01:43:29;;;;;;;3.63;2.30;;;17.00;91.40;;;;;;5035142;28;20037;-77
2023/07/20 01:45:55;;;;;;;4.70;2.50;;;16.90;91.40;;;;;;5053669;28;20037;-77
2023/07/20 01:48:21;;;;;;;6.38;2.33;;;16.90;91.50;;;;;;5052282;28;20555;-77
2023/07/20 01:50:46;;;;;;;5.88;2.47;;;16.90;91.60;;;;;;5035987;28;20108;-77
2023/07/20 01:53:12;;;;;;;5.10;2.25;;;16.90;91.70;;;;;;5052452;28;20477;-83
2023/07/20 01:55:38;;;;;;;4.72;2.72;;;16.80;91.80;;;;;;5053686;28;20037;-83
2023/07/20 01:58:03;;;;;;;5.40;2.38;;;16.80;91.90;;;;;;5053605;28;20041;-77
2023/07/20 02:00:29;;;;;;;5.50;2.63;;;16.80;92.00;;;;;;5035813;28;20098;-78
2023/07/20 02:02:55;;;;;;;6.85;2.45;;;16.80;92.00;;;;;;5052975;28;20037;-77
2023/07/20 02:05:20;;;;;;;4.65;2.25;;;16.70;92.00;;;;;;5052352;28;20178;-77
2023/07/20 02:07:46;;;;;;;6.93;2.70;;;16.70;92.10;;;;;;5035826;28;20044;-77
2023/07/20 02:10:12;;;;;;;5.28;2.55;;;16.70;92.20;;;;;;5051935;28;20029;-77
2023/07/20 02:12:37;;;;;;;5.07;2.40;;;16.60;92.20;;;;;;5052145;28;20030;-77
2023/07/20 02:15:03;;;;;;;4.53;2.10;;;16.60;92.30;;;;;;5035328;28;20045;-76
2023/07/20 02:17:29;;;;;;;4.90;2.55;;;16.60;92.50;;;;;;5052065;28;20048;-77
2023/07/20 02:19:57;;;;;;;3.17;2.05;;;16.60;92.60;;;;;;5052197;28;20037;-77
2023/07/20 02:22:23;;;;;;;4.07;2.28;;;16.60;92.70;;;;;;5052075;28;20025;-77
2023/07/20 02:24:49;;;;;;;3.08;1.67;;;16.60;92.70;;;;;;5053163;28;20087;-77
2023/07/20 02:27:14;;;;;;;3.35;1.90;;;16.60;92.80;;;;;;5052016;28;20025;-77
2023/07/20 02:29:41;;;;;;;4.30;2.00;;;16.60;92.90;;;;;;5051812;28;20025;-77
2023/07/20 02:32:09;;;;;;;4.00;2.20;;;16.60;93.00;;;;;;5053213;28;20031;-77
2023/07/20 02:34:35;;;;;;;5.82;2.35;;;16.60;93.00;;;;;;5051924;28;20021;-76
2023/07/20 02:37:00;;;;;;;4.70;2.10;;;16.60;93.00;;;;;;5035213;28;20087;-77
2023/07/20 02:39:28;;;;;;;3.45;1.88;;;16.50;93.00;;;;;;5051718;28;20035;-77
2023/07/20 02:41:54;;;;;;;4.72;2.17;;;16.50;93.10;;;;;;5051685;28;20013;-77
2023/07/20 02:44:19;;;;;;;3.83;2.35;;;16.50;93.10;;;;;;5051890;28;20025;-77
2023/07/20 02:46:45;;;;;;;4.40;2.45;;;16.40;93.20;;;;;;5052947;28;20366;-76
2023/07/20 02:49:11;;;;;;;5.35;2.70;;;16.40;93.30;;;;;;5053140;28;20070;-77
2023/07/20 02:51:37;;;;;;;4.68;2.35;;;16.20;93.60;;;;;;5051597;28;20017;-77
2023/07/20 02:54:03;;;;;;;5.30;2.40;;;16.20;93.40;;;;;;5051518;28;20429;-76
2023/07/20 02:56:29;;;;;;;4.90;2.67;;;16.10;93.50;;;;;;5055641;28;20029;-77
2023/07/20 02:58:54;;;;;;;4.05;2.08;;;16.10;93.50;;;;;;5055475;28;20025;-76
2023/07/20 03:01:20;;;;;;;4.50;1.95;;;16.00;93.60;;;;;;5055488;28;20031;-76
2023/07/20 03:03:47;;;;;;;4.82;2.65;;;16.00;93.80;;;;;;5055428;28;20021;-76
2023/07/20 03:06:16;;;;;;;3.95;2.08;;;15.90;93.80;;;;;;5038930;28;20026;-76
2023/07/20 03:08:47;;;;;;;3.95;2.10;;;15.90;94.00;;;;;;5055403;28;20036;-76
2023/07/20 03:11:16;;;;;;;3.20;2.00;;;15.90;94.10;;;;;;5055351;28;20021;-76
2023/07/20 03:13:42;;;;;;;4.20;2.17;;;15.80;94.20;;;;;;5055108;28;20372;-77
2023/07/20 03:16:11;;;;;;;4.03;2.40;;;15.80;94.30;;;;;;5052116;28;20549;-83
2023/07/20 03:18:38;;;;;;;4.45;2.58;;;15.70;94.40;;;;;;5036421;28;20478;-83
2023/07/20 03:21:04;;;;;;;5.18;2.78;;;15.70;94.50;;;;;;5018425;28;20482;-83
2023/07/20 03:23:30;;;;;;;4.68;2.67;;;15.70;94.60;;;;;;5035181;28;20042;-78
2023/07/20 03:25:56;;;;;;;4.03;2.28;;;15.60;94.70;;;;;;5035105;28;20022;-77
2023/07/20 03:28:22;;;;;;;4.60;2.55;;;15.60;94.80;;;;;;5036194;28;20041;-77
2023/07/20 03:30:56;;;;;;;4.03;2.33;;;15.60;94.80;;;;;;5018486;28;20108;-77
2023/07/20 03:33:25;;;;;;;3.10;1.67;;;15.50;94.90;;;;;;5036317;28;20033;-78
2023/07/20 03:35:50;;;;;;;3.88;2.13;;;15.50;95.00;;;;;;5036186;28;20101;-77
2023/07/20 03:38:16;;;;;;;3.85;1.73;;;15.50;95.10;;;;;;5036093;28;20127;-78
2023/07/20 03:40:56;;;;;;;4.82;2.20;;;15.40;95.20;;;;;;5036366;28;20052;-77
2023/07/20 03:43:23;;;;;;;4.22;2.55;;;15.40;95.30;;;;;;5034902;28;20112;-78
2023/07/20 03:45:48;;;;;;;3.17;1.98;;;15.40;95.40;;;;;;5036034;28;20028;-77
2023/07/20 03:48:19;;;;;;;4.18;2.72;;;15.30;95.40;;;;;;5034496;28;20026;-77
2023/07/20 03:50:46;;;;;;;4.13;2.58;;;15.30;95.60;;;;;;5034622;28;20026;-77
2023/07/20 03:53:12;;;;;;;3.97;2.10;;;15.30;95.70;;;;;;5034983;28;20046;-77
2023/07/20 03:55:40;;;;;;;6.72;2.67;;;15.30;95.80;;;;;;5018119;28;20021;-77
2023/07/20 03:58:06;;;;;;;3.90;2.28;;;15.20;95.90;;;;;;5053510;28;20029;-77
2023/07/20 04:00:32;;;;;;;3.88;2.05;;;15.20;96.00;;;;;;5054196;28;20481;-77
2023/07/20 04:02:57;;;;;;;4.07;2.50;;;15.20;96.10;;;;;;5052757;28;20056;-77
2023/07/20 04:05:23;;;;;;;5.28;2.50;;;15.20;96.20;;;;;;5052537;28;20087;-78
2023/07/20 04:07:48;;;;;;;4.50;2.65;;;15.10;96.20;;;;;;5053618;28;20040;-77
2023/07/20 04:10:14;;;;;;;5.30;2.70;;;15.10;96.30;;;;;;5052901;28;20115;-78
2023/07/20 04:12:40;;;;;;;4.97;2.30;;;15.10;96.40;;;;;;5037026;28;20024;-77
2023/07/20 04:15:06;;;;;;;3.90;2.33;;;15.00;96.50;;;;;;5036831;28;20084;-77
2023/07/20 04:17:33;;;;;;;5.50;2.35;;;15.00;96.60;;;;;;5037442;28;20028;-78
2023/07/20 04:19:58;;;;;;;3.70;2.05;;;15.00;96.70;;;;;;5037502;28;20021;-77
2023/07/20 04:22:24;;;;;;;4.18;1.88;;;15.00;96.80;;;;;;5054111;28;20078;-77
2023/07/20 04:24:49;;;;;;;3.70;2.05;;;15.00;96.90;;;;;;5055258;28;20025;-77
2023/07/20 04:27:15;;;;;;;3.53;2.05;;;15.00;96.90;;;;;;5037236;28;20033;-77
2023/07/20 04:29:40;;;;;;;4.60;2.13;;;15.00;97.00;;;;;;5053795;28;20031;-77
2023/07/20 04:32:07;;;;;;;5.03;2.28;;;15.00;97.10;;;;;;5053906;28;20037;-76
2023/07/20 04:34:32;;;;;;;4.25;2.35;;;15.00;97.30;;;;;;5053824;28;20163;-77
2023/07/20 04:36:58;;;;;;;3.67;2.33;;;15.00;97.30;;;;;;5020637;28;20044;-77
2023/07/20 04:39:23;;;;;;;5.00;2.55;;;14.90;97.40;;;;;;5052928;28;20107;-83
2023/07/20 04:41:49;;;;;;;4.00;2.47;;;14.90;97.70;;;;;;5044061;28;20037;-77
2023/07/20 04:44:14;;;;;;;4.85;2.65;;;15.00;97.80;;;;;;5033898;28;20029;-78
2023/07/20 04:46:40;;;;;;;5.80;2.75;;;14.90;97.80;;;;;;5033720;28;20037;-78
2023/07/20 04:49:06;;;;;;;4.53;2.45;;;14.90;98.00;;;;;;5017517;28;20021;-77
2023/07/20 04:51:32;;;;;;;3.28;2.20;;;14.90;98.10;;;;;;5052043;28;20021;-78
2023/07/20 04:53:58;;;;;;;3.92;2.17;;;15.00;98.20;;;;;;5036570;28;20064;-77
2023/07/20 04:56:24;;;;;;;6.68;2.28;;;15.00;98.30;;;;;;5053161;28;20032;-78
2023/07/20 04:58:50;;;;;;;5.35;2.35;;;15.00;98.40;;;;;;5054398;28;20064;-78
2023/07/20 05:01:15;;;;;;;4.10;2.08;;;15.10;98.50;;;;;;5051867;28;20052;-78
2023/07/20 05:03:41;;;;;;;4.70;2.22;;;15.00;98.50;;;;;;5053982;28;20032;-78
2023/07/20 05:06:07;;;;;;;6.38;3.03;;;15.10;98.60;;;;;;5052713;28;20029;-78
2023/07/20 05:08:33;;;;;;;4.30;2.55;;;15.10;98.60;;;;;;5052762;28;20074;-78
2023/07/20 05:10:59;;;;;;;4.07;2.45;;;15.10;98.70;;;;;;5036695;28;20021;-78
2023/07/20 05:13:25;;;;;;;3.97;2.35;;;15.10;98.80;;;;;;5053328;28;20053;-77
2023/07/20 05:15:52;;;;;;;4.82;2.40;;;15.10;98.90;;;;;;5052486;28;20525;-77
2023/07/20 05:18:19;;;;;;;6.07;2.70;;;15.20;99.10;;;;;;5052732;28;20076;-77
2023/07/20 05:20:48;;;;;;;7.90;3.15;;;15.20;99.10;;;;;;5052721;28;20025;-77
2023/07/20 05:23:14;;;;;;;4.78;2.72;;;15.30;99.20;;;;;;5052589;28;20029;-78
2023/07/20 05:25:40;;;;;;;5.97;2.97;;;15.30;99.70;;;;;;5032847;28;20040;-78
2023/07/20 05:28:06;;;;;;;4.65;3.20;;;15.30;99.50;;;;;;5052666;28;20083;-78
2023/07/20 05:30:31;;;;;;;4.95;3.25;;;15.30;99.60;;;;;;5036194;28;20348;-77
2023/07/20 05:32:57;;;;;;;4.22;2.65;;;15.40;99.70;;;;;;5052963;28;20032;-78
2023/07/20 05:35:23;;;;;;;4.30;2.50;;;15.50;99.80;;;;;;5036392;28;20029;-78
2023/07/20 05:37:49;;;;;;;3.58;2.08;;;15.60;99.80;;;;;;5052766;28;20075;-78
2023/07/20 05:40:18;;;;;;;3.58;1.70;;;15.70;99.90;;;;;;5052572;28;20025;-78
2023/07/20 05:42:46;;;;;;;3.83;1.90;;;15.80;99.90;;;;;;5052827;28;20029;-77
2023/07/20 05:45:12;;;;;;;3.63;1.48;;;15.80;99.80;;;;;;5052607;28;20108;-77
2023/07/20 05:47:37;;;;;;;2.33;1.40;;;15.90;99.90;;;;;;5035855;28;20035;-77
2023/07/20 05:50:03;;;;;;;3.00;1.63;;;15.90;99.90;;;;;;5036055;28;20440;-77
2023/07/20 05:52:29;;;;;;;2.00;1.10;;;15.90;99.90;;;;;;5036018;28;20028;-78
2023/07/20 05:54:55;;;;;;;1.80;1.15;;;16.00;99.90;;;;;;5035761;28;20381;-77
2023/07/20 05:57:20;;;;;;;2.83;0.95;;;16.10;99.90;;;;;;5035751;28;20381;-77
2023/07/20 05:59:46;;;;;;;2.45;1.20;;;16.20;99.90;;;;;;5035761;28;20082;-75
2023/07/20 06:02:12;;;;;;;1.92;1.05;;;16.20;99.90;;;;;;5051761;28;20029;-76
2023/07/20 06:04:39;;;;;;;2.28;1.02;;;16.30;99.90;;;;;;5050239;28;20033;-76
2023/07/20 06:07:05;;;;;;;2.17;0.80;;;16.40;99.90;;;;;;5051977;28;20052;-76
2023/07/20 06:09:31;;;;;;;1.08;0.50;;;16.50;99.90;;;;;;5051315;28;20052;-81
2023/07/20 06:11:56;;;;;;;1.20;0.50;;;16.60;99.90;;;;;;5052626;28;20447;-81
2023/07/20 06:14:22;;;;;;;1.23;0.60;;;16.60;99.70;;;;;;5052229;28;20044;-77
2023/07/20 06:16:48;;;;;;;1.20;0.57;;;16.70;99.50;;;;;;5053257;28;20067;-77
2023/07/20 06:19:13;;;;;;;1.13;0.40;;;16.80;99.40;;;;;;5035582;28;20074;-76
2023/07/20 06:21:39;;;;;;;0.80;0.40;;;16.80;99.10;;;;;;5053358;28;20075;-77
2023/07/20 06:24:06;;;;;;;0.88;0.40;;;16.80;98.80;;;;;;5052054;28;20044;-77
2023/07/20 06:26:37;;;;;;;1.17;0.40;;;16.90;98.60;;;;;;5053116;28;20025;-76
2023/07/20 06:29:03;;;;;;;1.50;0.40;;;16.90;98.30;;;;;;5052455;28;20021;-76
2023/07/20 06:31:29;;;;;;;1.95;0.40;;;17.00;98.00;;;;;;5056295;28;20148;-76
2023/07/20 06:33:54;;;;;;;3.42;0.38;;;17.00;97.70;;;;;;5039627;28;20036;-81
2023/07/20 06:36:20;;;;;;;0.90;0.40;;;17.00;97.40;;;;;;5039538;28;20385;-81
2023/07/20 06:38:46;;;;;;;1.20;0.38;;;17.00;97.10;;;;;;5055962;28;20029;-81
2023/07/20 06:41:11;;;;;;;0.90;0.30;;;17.10;96.90;;;;;;5056069;28;20033;-81
2023/07/20 06:43:37;;;;;;;1.60;0.38;;;17.10;96.60;;;;;;5056057;28;20044;-81
2023/07/20 06:46:03;;;;;;;3.10;0.50;;;17.20;96.40;;;;;;5057115;28;20029;-77
2023/07/20 06:48:29;;;;;;;0.95;0.40;;;17.20;96.10;;;;;;5039151;28;20550;-77
2023/07/20 06:50:55;;;;;;;0.40;0.20;;;17.20;95.80;;;;;;5055651;28;20029;-76
2023/07/20 06:53:21;;;;;;;0.80;0.38;;;17.30;95.60;;;;;;5055503;28;20367;-77
2023/07/20 06:55:47;;;;;;;2.30;0.32;;;17.20;95.30;;;;;;5055552;28;20074;-77
2023/07/20 06:58:13;;;;;;;1.17;0.22;;;17.30;95.10;;;;;;5022630;28;20468;-81
2023/07/20 07:00:38;;;;;;;0.65;0.20;;;17.30;94.90;;;;;;5056968;28;20039;-81
2023/07/20 07:03:04;;;;;;;1.48;0.40;;;17.30;94.70;;;;;;5038961;28;20033;-82
2023/07/20 07:05:29;;;;;;;1.60;0.30;;;17.40;94.50;;;;;;5055655;28;20058;-76
2023/07/20 07:07:55;;;;;;;1.63;0.28;;;17.40;94.20;;;;;;5055590;28;20381;-76
2023/07/20 07:10:21;;;;;;;1.50;0.40;;;17.50;94.00;;;;;;5038636;28;20040;-76
2023/07/20 07:12:46;;;;;;;0.75;0.20;;;17.50;93.80;;;;;;5038849;28;20461;-81
2023/07/20 07:15:12;;;;;;;1.35;0.47;;;17.50;93.60;;;;;;5055054;28;20056;-81
2023/07/20 07:17:38;;;;;;;0.75;0.30;;;17.60;93.50;;;;;;5038677;28;20555;-81
2023/07/20 07:20:05;;;;;;;0.80;0.30;;;17.60;93.30;;;;;;5056428;28;20040;-81
2023/07/20 07:22:30;;;;;;;2.88;0.50;;;17.70;93.20;;;;;;5038707;28;20025;-81
2023/07/20 07:24:56;;;;;;;0.68;0.30;;;17.80;93.10;;;;;;5056288;28;20090;-81
2023/07/20 07:27:21;;;;;;;0.60;0.32;;;17.80;92.90;;;;;;5056108;28;20388;-81
2023/07/20 07:29:49;;;;;;;2.22;0.30;;;18.00;92.80;;;;;;5038370;28;20030;-82
2023/07/20 07:32:15;;;;;;;0.60;0.30;;;18.10;92.60;;;;;;5038622;28;20051;-82
2023/07/20 07:34:40;;;;;;;0.70;0.30;;;18.20;92.50;;;;;;5056177;28;20482;-82
2023/07/20 07:37:06;;;;;;;3.60;0.28;;;18.30;92.20;;;;;;5038322;28;20036;-82
2023/07/20 07:39:32;;;;;;;1.45;0.30;;;18.40;91.90;;;;;;5038500;28;20025;-82
2023/07/20 07:41:58;;;;;;;0.60;0.30;;;18.50;91.60;;;;;;5053369;28;20033;-81
2023/07/20 07:44:24;;;;;;;0.75;0.30;;;18.60;91.30;;;;;;5038447;28;20033;-82
2023/07/20 07:46:50;;;;;;;1.05;0.30;;;18.60;90.90;;;;;;5055862;28;20393;-78
2023/07/20 07:49:16;;;;;;;0.63;0.22;;;18.70;90.60;;;;;;5054673;28;20017;-82
2023/07/20 07:51:42;;;;;;;1.23;0.30;;;18.70;90.40;;;;;;5054522;28;20017;-82
2023/07/20 07:54:07;;;;;;;0.85;0.30;;;18.80;90.10;;;;;;5021381;28;20116;-82
2023/07/20 07:56:33;;;;;;;0.20;0.20;;;18.80;89.90;;;;;;5054552;28;20476;-82
2023/07/20 07:58:58;;;;;;;0.90;0.20;;;18.80;89.30;;;;;;5054410;28;20473;-82
2023/07/20 08:01:25;;;;;;;0.68;0.30;;;18.90;88.90;;;;;;5055519;28;20041;-77
2023/07/20 08:03:50;;;;;;;1.55;0.30;;;18.90;88.40;;;;;;5037804;28;20025;-77
2023/07/20 08:06:16;;;;;;;1.35;0.32;;;19.00;87.90;;;;;;5054245;28;20547;-76
2023/07/20 08:08:42;;;;;;;1.98;0.30;;;19.10;87.50;;;;;;5055169;28;20040;-76
2023/07/20 08:11:08;;;;;;;0.57;0.30;;;19.10;87.00;;;;;;5037830;28;20050;-82
2023/07/20 08:13:34;;;;;;;1.42;0.30;;;19.20;86.60;;;;;;5055597;28;20036;-82
2023/07/20 08:16:02;;;;;;;0.85;0.35;;;19.30;86.10;;;;;;5055223;28;20106;-83
2023/07/20 08:18:28;;;;;;;0.50;0.20;;;19.40;85.60;;;;;;5054049;28;20395;-82
2023/07/20 08:20:54;;;;;;;0.85;0.35;;;19.40;85.10;;;;;;5037378;28;20032;-82
2023/07/20 08:23:20;;;;;;;0.80;0.28;;;19.60;84.60;;;;;;5037384;28;20036;-82
2023/07/20 08:25:46;;;;;;;0.73;0.30;;;19.70;84.10;;;;;;5053902;28;20443;-82
2023/07/20 08:28:13;;;;;;;1.30;0.30;;;19.70;83.50;;;;;;5055063;28;20037;-82
2023/07/20 08:30:42;;;;;;;1.27;0.30;;;19.80;82.90;;;;;;5055312;28;20100;-82
2023/07/20 08:33:08;;;;;;;1.85;0.30;;;19.90;82.20;;;;;;5053768;28;20025;-82
2023/07/20 08:35:33;;;;;;;2.33;0.30;;;20.00;81.50;;;;;;5054987;28;20028;-82
2023/07/20 08:37:59;;;;;;;0.50;0.25;;;20.00;80.70;;;;;;5037227;28;20033;-82
2023/07/20 08:40:25;;;;;;;0.60;0.20;;;20.10;80.30;;;;;;5054928;28;20032;-83
2023/07/20 08:42:50;;;;;;;1.30;0.20;;;20.10;79.90;;;;;;5054010;28;20452;-82
2023/07/20 08:45:17;;;;;;;0.85;0.17;;;20.10;79.10;;;;;;5055065;28;20063;-82
2023/07/20 08:47:45;;;;;;;0.82;0.25;;;20.20;78.60;;;;;;5053506;28;20124;-82
2023/07/20 08:50:12;;;;;;;1.08;0.20;;;20.20;78.20;;;;;;5054822;28;20064;-82
2023/07/20 08:52:38;;;;;;;0.20;0.10;;;20.20;77.80;;;;;;5054210;28;20048;-82
2023/07/20 08:55:04;;;;;;;1.15;0.22;;;20.30;77.70;;;;;;5054650;28;20437;-82
2023/07/20 08:57:33;;;;;;;0.95;0.20;;;20.30;77.30;;;;;;5054354;28;20124;-82
2023/07/20 09:00:09;;;;;;;0.80;0.10;;;20.40;76.90;;;;;;5053257;28;20397;-82
2023/07/20 09:02:40;;;;;;;0.75;0.22;;;20.50;76.50;;;;;;5053331;28;20530;-82
2023/07/20 09:05:07;;;;;;;0.57;0.20;;;20.60;76.00;;;;;;5054359;28;20037;-82
2023/07/20 09:07:35;;;;;;;0.57;0.28;;;20.60;75.50;;;;;;5053416;28;20078;-82
2023/07/20 09:10:05;;;;;;;0.57;0.20;;;20.70;75.20;;;;;;5054257;28;20056;-82
2023/07/20 09:12:32;;;;;;;1.63;0.30;;;20.70;75.10;;;;;;5053334;28;20108;-82
2023/07/20 09:14:58;;;;;;;1.52;0.32;;;20.80;74.80;;;;;;5053221;28;20081;-82
2023/07/20 09:17:26;;;;;;;1.42;0.20;;;20.80;74.60;;;;;;5053026;28;20119;-82
2023/07/20 09:19:51;;;;;;;0.68;0.20;;;20.80;74.30;;;;;;5052838;28;20021;-82
2023/07/20 09:22:17;;;;;;;1.05;0.20;;;20.90;74.00;;;;;;5053921;28;20110;-82
2023/07/20 09:24:43;;;;;;;0.77;0.22;;;20.90;73.50;;;;;;5054024;28;20029;-83
2023/07/20 09:27:10;;;;;;;0.45;0.20;;;21.00;73.20;;;;;;5052556;28;20451;-82
2023/07/20 09:29:51;;;;;;;0.32;0.20;;;21.00;72.90;;;;;;5052765;28;20504;-81
2023/07/20 09:32:22;;;;;;;0.68;0.30;;;21.10;72.50;;;;;;5053860;28;20431;-82
2023/07/20 09:34:50;;;;;;;0.93;0.20;;;21.20;72.10;;;;;;5052255;28;20095;-77
2023/07/20 09:37:24;;;;;;;1.27;0.28;;;21.30;71.80;;;;;;5036056;28;20037;-82
2023/07/20 09:39:51;;;;;;;;;;;21.30;71.30;;;;;;5052838;28;20033;-82
2023/07/20 09:42:18;;;;;;;0.88;0.30;;;21.40;71.10;;;;;;5053884;28;19905;-82
2023/07/20 09:44:45;;;;;;;0.65;0.22;;;21.40;71.50;;;;;;5052316;28;20119;-76
2023/07/20 09:47:11;;;;;;;0.95;0.20;;;21.50;70.80;;;;;;5035708;28;20489;-77
2023/07/20 09:49:43;;;;;;;1.13;0.20;;;21.50;70.10;;;;;;5052605;28;20151;-84
2023/07/20 09:52:09;;;;;;;0.82;0.30;;;21.50;69.60;;;;;;5052503;28;20025;-83
2023/07/20 09:54:38;;;;;;;0.60;0.22;;;21.50;69.40;;;;;;5053976;28;20596;-83
2023/07/20 09:57:06;;;;;;;1.25;0.20;;;21.60;69.20;;;;;;5052321;28;20036;-83
2023/07/20 09:59:32;;;;;;;0.73;0.40;;;21.70;69.50;;;;;;5053520;28;20057;-84
2023/07/20 10:02:00;;;;;;;1.77;0.20;;;21.70;68.40;;;;;;5035606;28;20122;-83
2023/07/20 10:04:28;;;;;;;0.93;0.20;;;21.70;68.20;;;;;;5052662;28;20024;-83
2023/07/20 10:06:56;;;;;;;1.13;0.38;;;21.80;68.00;;;;;;5053533;28;20062;-82
2023/07/20 10:09:24;;;;;;;0.70;0.25;;;21.80;68.10;;;;;;5053158;28;20033;-83
2023/07/20 10:11:53;;;;;;;0.63;0.30;;;21.90;68.10;;;;;;5035756;28;20110;-83
2023/07/20 10:14:23;;;;;;;1.13;0.30;;;21.90;67.40;;;;;;5053376;28;20048;-83
2023/07/20 10:16:57;;;;;;;0.25;0.10;;;22.00;67.00;;;;;;5052312;28;20083;-82
2023/07/20 10:19:29;;;;;;;1.73;0.22;;;22.10;66.70;;;;;;5053447;28;20025;-83
2023/07/20 10:22:13;;;;;;;0.60;0.25;;;22.10;66.50;;;;;;5053029;28;20090;-80
2023/07/20 10:24:39;;;;;;;;;;;22.20;65.90;;;;;;5052423;28;20032;-83
2023/07/20 10:27:05;;;;;;;0.68;0.10;;;22.30;66.00;;;;;;5050969;28;19924;-82
2023/07/20 10:29:32;;;;;;;0.70;0.30;;;22.40;66.30;;;;;;5045583;28;20033;-83
2023/07/20 10:31:58;;;;;;;1.17;0.30;;;22.40;66.00;;;;;;5031918;28;20090;-82
2023/07/20 10:34:24;;;;;;;0.98;0.25;;;22.50;66.00;;;;;;5031713;28;20030;-82
2023/07/20 10:36:54;;;;;;;0.60;0.20;;;22.60;65.60;;;;;;5033510;28;20033;-76
2023/07/20 10:39:32;;;;;;;0.43;0.15;;;22.70;65.20;;;;;;5016044;28;20112;-78
2023/07/20 10:42:07;;;;;;;0.57;0.20;;;22.80;65.40;;;;;;5033387;28;20117;-76
2023/07/20 10:44:34;;;;;;;0.65;0.20;;;23.00;64.50;;;;;;5033319;28;20032;-76
2023/07/20 10:47:01;;;;;;;0.50;0.20;;;23.10;64.30;;;;;;5031760;28;20048;-77
2023/07/20 10:49:27;;;;;;;0.55;0.22;;;23.30;63.80;;;;;;5015290;28;20474;-78
2023/07/20 10:52:01;;;;;;;0.40;0.10;;;23.50;63.40;;;;;;5031851;28;20053;-76
2023/07/20 10:54:27;;;;;;;1.35;0.22;;;23.70;63.00;;;;;;5032091;28;20432;-77
2023/07/20 10:56:55;;;;;;;0.98;0.20;;;23.80;62.60;;;;;;5032007;28;20025;-77
2023/07/20 10:59:40;;;;;;;0.90;0.38;;;23.90;62.10;;;;;;5032264;28;20057;-78
2023/07/20 11:02:07;;;;;;;2.25;0.17;;;24.10;61.40;;;;;;5032248;28;20073;-83
2023/07/20 11:04:44;;;;;;;0.65;0.10;;;24.30;61.50;;;;;;5032561;28;20033;-83
2023/07/20 11:07:10;;;;;;;0.38;0.10;;;24.40;60.80;;;;;;5033021;28;20466;-82
2023/07/20 11:09:39;;;;;;;2.28;0.13;;;24.60;60.40;;;;;;5033178;28;20025;-84
2023/07/20 11:12:15;;;;;;;0.38;0.10;;;24.70;59.80;;;;;;5032811;28;20474;-83
2023/07/20 11:15:03;;;;;;;0.88;0.15;;;24.80;59.20;;;;;;5033513;28;20080;-83
2023/07/20 11:17:33;;;;;;;0.30;0.17;;;24.80;59.10;;;;;;5021429;28;20071;-83
2023/07/20 11:20:01;;;;;;;0.38;0.15;;;24.80;58.90;;;;;;5035509;28;20022;-83
2023/07/20 11:22:27;;;;;;;1.67;0.20;;;25.00;59.00;;;;;;5035139;28;20028;-83
2023/07/20 11:24:56;;;;;;;0.40;0.10;;;25.10;58.80;;;;;;5036870;28;20030;-78
2023/07/20 11:27:25;;;;;;;0.20;0.10;;;25.20;58.50;;;;;;5035181;28;20064;-78
2023/07/20 11:29:50;;;;;;;0.20;0.13;;;25.40;58.40;;;;;;5019084;28;20539;-78
2023/07/20 11:32:23;;;;;;;0.65;0.20;;;25.40;58.00;;;;;;5018640;28;20029;-77
2023/07/20 11:34:49;;;;;;;0.30;0.10;;;25.50;57.60;;;;;;5018694;28;20489;-78
2023/07/20 11:37:16;;;;;;;2.10;0.30;;;25.50;57.50;;;;;;5034968;28;20367;-78
2023/07/20 11:39:41;;;;;;;0.30;0.20;;;25.50;57.30;;;;;;5035064;28;20021;-78
2023/07/20 11:42:07;;;;;;;0.63;0.15;;;25.40;57.00;;;;;;5018625;28;20175;-77
2023/07/20 11:44:33;;;;;;;0.85;0.20;;;25.40;57.10;;;;;;5034711;28;20029;-77
2023/07/20 11:47:10;;;;;;;1.92;0.68;;;25.30;57.20;;;;;;5038365;28;20038;-75
2023/07/20 11:49:44;;;;;;;2.28;0.20;;;25.20;57.00;;;;;;5051081;28;20032;-78
2023/07/20 11:52:16;;;;;;;0.52;0.20;;;25.00;57.10;;;;;;5018162;28;20498;-79
2023/07/20 11:54:43;;;;;;;0.88;0.25;;;25.00;57.10;;;;;;5018271;28;20493;-78
2023/07/20 11:57:16;;;;;;;0.70;0.20;;;25.00;57.20;;;;;;5018110;28;20021;-79
2023/07/20 12:00:03;;;;;;;0.95;0.20;;;25.00;57.10;;;;;;5040536;28;20025;-78
2023/07/20 12:02:29;;;;;;;3.17;0.22;;;25.10;56.90;;;;;;5053259;28;20240;-78
2023/07/20 12:04:56;;;;;;;1.15;0.20;;;25.20;56.90;;;;;;5052869;28;20021;-79
2023/07/20 12:07:22;;;;;;;0.90;0.10;;;25.10;56.60;;;;;;5035908;28;20055;-79
2023/07/20 12:10:05;;;;;;;1.27;0.28;;;25.10;56.50;;;;;;5054410;28;20032;-79
2023/07/20 12:12:32;;;;;;;0.47;0.20;;;25.20;56.40;;;;;;5055846;28;20381;-85
2023/07/20 12:15:14;;;;;;;1.15;0.25;;;25.40;56.70;;;;;;5053488;28;20299;-80
2023/07/20 12:17:46;;;;;;;0.85;0.30;;;25.70;56.10;;;;;;5054083;28;20485;-77
2023/07/20 12:20:12;;;;;;;0.43;0.20;;;26.00;56.60;;;;;;5054091;28;20090;-78
2023/07/20 12:22:40;;;;;;;1.58;0.20;;;26.30;56.00;;;;;;5037257;28;20029;-78
2023/07/20 12:25:07;;;;;;;1.17;0.30;;;26.60;55.50;;;;;;5020975;28;20028;-77
2023/07/20 12:27:32;;;;;;;0.68;0.20;;;26.90;54.90;;;;;;5036635;28;20366;-81
2023/07/20 12:29:58;;;;;;;2.55;0.30;;;27.20;54.50;;;;;;5037271;28;20027;-77
2023/07/20 12:32:24;;;;;;;0.45;0.20;;;27.40;53.90;;;;;;5037145;28;20029;-76
2023/07/20 12:34:50;;;;;;;0.93;0.10;;;27.60;53.50;;;;;;5037088;28;20027;-76
2023/07/20 12:37:18;;;;;;;0.70;0.10;;;27.70;52.80;;;;;;5037491;28;20057;-76
2023/07/20 12:39:46;;;;;;;0.30;0.10;;;27.80;52.10;;;;;;5037336;28;20461;-79
2023/07/20 12:42:14;;;;;;;0.95;0.20;;;27.90;51.80;;;;;;5037425;28;20366;-78
2023/07/20 12:44:40;;;;;;;0.65;0.15;;;28.00;51.50;;;;;;5053829;28;20083;-84
2023/07/20 12:47:05;;;;;;;0.50;0.20;;;28.20;51.20;;;;;;5037022;28;20037;-84
2023/07/20 12:49:31;;;;;;;0.32;0.10;;;28.40;50.80;;;;;;5020855;28;20131;-85